createdAt,value
2022-11-28T00:00:06.769Z,43.01
2022-11-28T00:02:34.009Z,43.02
2022-11-28T00:05:01.276Z,43.02
2022-11-28T00:07:28.560Z,43.01
2022-11-28T00:09:55.826Z,43.05
2022-11-28T00:12:22.997Z,42.97
2022-11-28T00:14:51.474Z,42.93
2022-11-28T00:17:18.590Z,43.07
2022-11-28T00:19:45.889Z,42.95
2022-11-28T00:22:13.008Z,42.86
2022-11-28T00:24:40.774Z,43.00
2022-11-28T00:27:08.206Z,43.00
2022-11-28T00:29:35.317Z,42.91
2022-11-28T00:32:04.165Z,42.77
2022-11-28T00:34:31.395Z,42.91
2022-11-28T00:36:58.532Z,42.82
2022-11-28T00:39:25.644Z,42.78
2022-11-28T00:41:52.767Z,42.94
2022-11-28T00:44:19.891Z,42.96
2022-11-28T00:46:47.039Z,42.78
2022-11-28T00:49:15.572Z,42.91
2022-11-28T00:51:42.679Z,42.86
2022-11-28T00:54:10.501Z,42.97
2022-11-28T00:56:39.191Z,42.90
2022-11-28T00:59:06.898Z,42.94
2022-11-28T01:01:36.188Z,42.92
2022-11-28T01:04:05.924Z,42.94
2022-11-28T01:06:37.431Z,43.01
2022-11-28T01:09:06.496Z,42.95
2022-11-28T01:11:33.697Z,42.84
2022-11-28T01:14:02.054Z,43.05
2022-11-28T01:16:29.591Z,42.79
2022-11-28T01:18:57.138Z,42.77
2022-11-28T01:21:24.996Z,42.67
2022-11-28T01:23:53.963Z,42.79
2022-11-28T01:26:23.742Z,42.59
2022-11-28T01:28:51.303Z,42.85
2022-11-28T01:31:20.497Z,42.71
2022-11-28T01:33:48.059Z,42.75
2022-11-28T01:36:19.481Z,42.80
2022-11-28T01:38:47.318Z,42.95
2022-11-28T01:41:18.569Z,43.15
2022-11-28T01:44:04.733Z,43.06
2022-11-28T01:46:33.335Z,42.89
2022-11-28T01:49:05.195Z,43.07
2022-11-28T01:51:33.478Z,43.05
2022-11-28T01:54:01.131Z,42.99
2022-11-28T01:56:37.589Z,43.09
2022-11-28T01:59:09.279Z,43.15
2022-11-28T02:01:37.106Z,43.18
2022-11-28T02:04:05.025Z,43.03
2022-11-28T02:06:33.060Z,42.90
2022-11-28T02:09:00.173Z,42.86
2022-11-28T02:12:01.477Z,42.85
2022-11-28T02:14:47.911Z,42.56
2022-11-28T02:17:27.282Z,42.65
2022-11-28T02:20:32.851Z,42.69
2022-11-28T02:23:07.355Z,42.74
2022-11-28T02:28:43.143Z,42.87
2022-11-28T02:31:27.177Z,42.82
2022-11-28T02:33:59.695Z,42.86
2022-11-28T02:36:32.273Z,42.86
2022-11-28T02:39:12.780Z,42.87
2022-11-28T02:41:44.722Z,42.96
2022-11-28T02:44:16.393Z,42.98
2022-11-28T02:46:52.453Z,42.96
2022-11-28T02:49:26.674Z,43.08
2022-11-28T02:51:55.866Z,43.06
2022-11-28T02:54:24.774Z,42.94
2022-11-28T02:56:54.367Z,42.77
2022-11-28T02:59:31.664Z,42.66
2022-11-28T03:01:59.562Z,42.70
2022-11-28T03:04:35.229Z,42.64
2022-11-28T03:07:13.392Z,42.71
2022-11-28T03:10:00.778Z,42.67
2022-11-28T03:12:40.919Z,42.52
2022-11-28T03:15:09.578Z,42.83
2022-11-28T03:17:43.908Z,42.64
2022-11-28T03:20:19.222Z,42.76
2022-11-28T03:23:01.241Z,42.77
2022-11-28T03:25:34.106Z,42.78
2022-11-28T03:28:09.040Z,42.78
2022-11-28T03:30:41.106Z,42.89
2022-11-28T03:33:09.265Z,42.90
2022-11-28T03:35:42.559Z,42.85
2022-11-28T03:38:15.541Z,42.81
2022-11-28T03:40:46.907Z,42.92
2022-11-28T03:43:17.385Z,42.89
2022-11-28T03:45:48.931Z,42.89
2022-11-28T03:48:21.477Z,42.52
2022-11-28T03:50:57.095Z,42.03
2022-11-28T03:53:28.090Z,41.75
2022-11-28T03:56:01.818Z,41.21
2022-11-28T03:58:33.893Z,41.18
2022-11-28T04:01:12.066Z,41.06
2022-11-28T04:03:51.360Z,40.84
2022-11-28T04:06:22.980Z,40.96
2022-11-28T04:09:00.734Z,40.82
2022-11-28T04:11:37.182Z,40.91
2022-11-28T04:14:12.530Z,40.96
2022-11-28T04:16:52.190Z,41.19
2022-11-28T04:19:25.427Z,41.17
2022-11-28T04:22:00.179Z,41.28
2022-11-28T04:24:30.554Z,41.24
2022-11-28T04:27:01.801Z,41.28
2022-11-28T04:29:34.932Z,41.44
2022-11-28T04:32:03.999Z,41.37
2022-11-28T04:34:34.637Z,41.43
2022-11-28T04:37:09.777Z,41.35
2022-11-28T04:39:40.737Z,41.58
2022-11-28T04:42:11.527Z,41.88
2022-11-28T04:44:46.700Z,42.09
2022-11-28T04:47:14.249Z,42.23
2022-11-28T04:49:41.703Z,42.29
2022-11-28T04:52:14.869Z,42.22
2022-11-28T04:54:51.489Z,42.16
2022-11-28T04:57:24.137Z,42.22
2022-11-28T04:59:52.823Z,42.21
2022-11-28T05:02:21.460Z,42.22
2022-11-28T05:04:48.650Z,42.24
2022-11-28T05:07:17.140Z,42.23
2022-11-28T05:09:44.273Z,42.07
2022-11-28T05:12:11.448Z,42.22
2022-11-28T05:14:38.562Z,42.20
2022-11-28T05:17:05.673Z,42.24
2022-11-28T05:19:32.807Z,42.35
2022-11-28T05:21:59.914Z,42.61
2022-11-28T05:24:32.245Z,43.29
2022-11-28T05:26:59.683Z,42.60
2022-11-28T05:29:26.802Z,43.72
2022-11-28T05:31:53.967Z,43.23
2022-11-28T05:34:21.209Z,42.98
2022-11-28T05:36:48.342Z,42.93
2022-11-28T05:39:15.479Z,42.93
2022-11-28T05:41:43.986Z,42.86
2022-11-28T05:44:11.123Z,42.71
2022-11-28T05:46:38.227Z,42.69
2022-11-28T05:49:05.433Z,42.50
2022-11-28T05:51:32.532Z,42.68
2022-11-28T05:53:59.651Z,42.52
2022-11-28T05:56:26.801Z,42.49
2022-11-28T05:58:55.387Z,42.48
2022-11-28T06:01:25.062Z,42.48
2022-11-28T06:03:52.393Z,42.45
2022-11-28T06:06:21.379Z,42.48
2022-11-28T06:08:49.904Z,42.42
2022-11-28T06:11:17.404Z,42.71
2022-11-28T06:13:46.271Z,42.68
2022-11-28T06:16:16.686Z,42.40
2022-11-28T06:18:44.391Z,42.52
2022-11-28T06:21:13.273Z,42.43
2022-11-28T06:23:41.180Z,42.62
2022-11-28T06:26:10.917Z,42.57
2022-11-28T06:28:38.151Z,42.62
2022-11-28T06:31:10.915Z,42.58
2022-11-28T06:33:39.672Z,42.65
2022-11-28T06:36:08.068Z,42.86
2022-11-28T06:38:35.463Z,42.81
2022-11-28T06:41:04.638Z,42.60
2022-11-28T06:43:32.150Z,42.65
2022-11-28T06:45:59.559Z,42.62
2022-11-28T06:48:26.766Z,42.69
2022-11-28T06:51:02.517Z,42.53
2022-11-28T06:53:31.570Z,42.67
2022-11-28T06:56:03.664Z,42.69
2022-11-28T06:58:30.770Z,42.48
2022-11-28T07:00:57.932Z,42.58
2022-11-28T07:03:25.081Z,42.66
2022-11-28T07:05:52.194Z,42.59
2022-11-28T07:08:20.747Z,42.52
2022-11-28T07:10:47.940Z,42.70
2022-11-28T07:13:15.114Z,42.61
2022-11-28T07:15:48.621Z,42.83
2022-11-28T07:18:15.743Z,42.69
2022-11-28T07:20:42.868Z,42.84
2022-11-28T07:23:10.128Z,42.76
2022-11-28T07:25:38.667Z,42.63
2022-11-28T07:28:06.022Z,42.69
2022-11-28T07:30:33.176Z,42.77
2022-11-28T07:33:00.280Z,42.55
2022-11-28T07:35:28.044Z,42.39
2022-11-28T07:37:55.183Z,42.30
2022-11-28T07:40:22.336Z,42.00
2022-11-28T07:42:51.244Z,41.80
2022-11-28T07:45:18.416Z,41.72
2022-11-28T07:47:45.519Z,41.73
2022-11-28T07:50:12.691Z,41.84
2022-11-28T07:52:39.835Z,41.91
2022-11-28T07:55:07.406Z,41.54
2022-11-28T07:57:34.541Z,41.59
2022-11-28T08:00:04.286Z,41.59
2022-11-28T08:02:31.472Z,41.57
2022-11-28T08:04:58.706Z,41.66
2022-11-28T08:07:25.995Z,41.48
2022-11-28T08:09:53.175Z,41.63
2022-11-28T08:12:20.285Z,41.75
2022-11-28T08:14:47.421Z,41.84
2022-11-28T08:17:15.875Z,42.22
2022-11-28T08:19:42.970Z,42.26
2022-11-28T08:22:10.232Z,42.53
2022-11-28T08:24:37.557Z,42.47
2022-11-28T08:27:04.653Z,42.48
2022-11-28T08:29:31.911Z,42.31
2022-11-28T08:31:59.025Z,42.04
2022-11-28T08:34:27.483Z,41.85
2022-11-28T08:36:54.607Z,41.65
2022-11-28T08:39:24.316Z,41.77
2022-11-28T08:41:52.242Z,41.40
2022-11-28T08:44:19.405Z,41.36
2022-11-28T08:46:46.527Z,41.29
2022-11-28T08:49:13.655Z,41.38
2022-11-28T08:51:42.248Z,41.31
2022-11-28T08:54:09.521Z,41.22
2022-11-28T08:56:36.665Z,41.29
2022-11-28T08:59:03.853Z,41.48
2022-11-28T09:01:31.070Z,41.27
2022-11-28T09:03:58.391Z,41.64
2022-11-28T09:06:25.529Z,41.58
2022-11-28T09:08:54.052Z,41.85
2022-11-28T09:11:22.647Z,41.76
2022-11-28T09:13:50.050Z,42.03
2022-11-28T09:16:17.508Z,42.10
2022-11-28T09:18:44.656Z,42.02
2022-11-28T09:21:14.026Z,41.96
2022-11-28T09:23:43.303Z,42.03
2022-11-28T09:26:13.581Z,42.20
2022-11-28T09:28:40.795Z,42.07
2022-11-28T09:31:08.875Z,42.33
2022-11-28T09:33:36.889Z,42.13
2022-11-28T09:36:05.347Z,41.98
2022-11-28T09:38:32.657Z,41.97
2022-11-28T09:41:01.773Z,42.06
2022-11-28T09:43:35.397Z,42.11
2022-11-28T09:46:05.869Z,42.15
2022-11-28T09:48:37.567Z,42.29
2022-11-28T09:51:21.585Z,42.21
2022-11-28T09:54:02.102Z,42.26
2022-11-28T09:56:29.266Z,42.49
2022-11-28T09:59:00.111Z,42.44
2022-11-28T10:01:35.845Z,42.46
2022-11-28T10:04:09.706Z,42.40
2022-11-28T10:06:45.954Z,42.48
2022-11-28T10:09:29.878Z,42.27
2022-11-28T10:12:14.048Z,42.21
2022-11-28T10:14:57.021Z,42.04
2022-11-28T10:17:34.248Z,42.25
2022-11-28T10:20:05.868Z,41.99
2022-11-28T10:22:41.021Z,42.12
2022-11-28T10:25:16.900Z,42.38
2022-11-28T10:27:45.057Z,43.14
2022-11-28T10:30:20.519Z,42.67
2022-11-28T10:32:55.024Z,43.63
2022-11-28T10:35:28.917Z,50.19
2022-11-28T10:37:56.236Z,46.79
2022-11-28T10:40:29.088Z,48.42
2022-11-28T10:43:01.085Z,47.65
2022-11-28T10:45:36.688Z,49.33
2022-11-28T10:51:17.795Z,44.02
2022-11-28T10:53:51.846Z,43.25
2022-11-28T10:56:31.100Z,43.24
2022-11-28T10:59:04.822Z,43.10
2022-11-28T11:01:37.955Z,43.08
2022-11-28T11:04:05.868Z,42.13
2022-11-28T11:06:41.777Z,42.53
2022-11-28T11:09:15.142Z,42.41
2022-11-28T11:11:53.253Z,42.40
2022-11-28T11:14:34.460Z,42.59
2022-11-28T11:17:03.677Z,42.38
2022-11-28T11:19:33.068Z,42.56
2022-11-28T11:22:03.427Z,42.66
2022-11-28T11:24:30.969Z,42.47
2022-11-28T11:27:05.671Z,42.47
2022-11-28T11:29:34.510Z,42.39
2022-11-28T11:32:05.212Z,42.26
2022-11-28T11:34:37.685Z,42.20
2022-11-28T11:37:35.557Z,42.37
2022-11-28T11:40:17.237Z,42.50
2022-11-28T11:42:52.687Z,42.82
2022-11-28T11:45:31.975Z,43.07
2022-11-28T11:48:01.479Z,43.50
2022-11-28T11:50:30.918Z,43.22
2022-11-28T11:53:03.967Z,43.36
2022-11-28T11:55:45.488Z,43.32
2022-11-28T11:58:17.596Z,43.17
2022-11-28T12:00:45.605Z,43.03
2022-11-28T12:03:25.067Z,43.02
2022-11-28T12:08:47.906Z,43.15
2022-11-28T12:11:20.069Z,43.81
2022-11-28T12:13:48.162Z,43.62
2022-11-28T12:16:34.187Z,43.45
2022-11-28T12:19:15.531Z,43.18
2022-11-28T12:22:07.480Z,43.02
2022-11-28T12:24:49.379Z,43.19
2022-11-28T12:27:30.683Z,43.06
2022-11-28T12:30:14.677Z,43.04
2022-11-28T12:32:53.630Z,43.03
2022-11-28T12:35:36.943Z,43.10
2022-11-28T12:38:18.926Z,43.09
2022-11-28T12:41:01.094Z,42.92
2022-11-28T12:43:41.307Z,42.85
2022-11-28T12:46:15.240Z,42.43
2022-11-28T12:48:53.800Z,42.51
2022-11-28T12:51:36.596Z,42.62
2022-11-28T12:54:18.076Z,42.62
2022-11-28T12:56:54.473Z,42.66
2022-11-28T12:59:27.070Z,42.69
2022-11-28T13:02:09.571Z,42.57
2022-11-28T13:04:59.720Z,42.62
2022-11-28T13:07:38.716Z,42.48
2022-11-28T13:10:14.713Z,42.51
2022-11-28T13:12:52.935Z,42.64
2022-11-28T13:15:37.268Z,42.49
2022-11-28T13:18:16.014Z,42.58
2022-11-28T13:20:47.520Z,42.60
2022-11-28T13:23:20.413Z,42.46
2022-11-28T13:25:54.135Z,42.32
2022-11-28T13:28:27.283Z,42.38
2022-11-28T13:31:01.113Z,42.29
2022-11-28T13:33:45.110Z,42.13
2022-11-28T13:39:16.746Z,41.94
2022-11-28T13:42:21.455Z,42.13
2022-11-28T13:44:50.470Z,42.10
2022-11-28T13:47:28.189Z,42.21
2022-11-28T13:50:32.925Z,43.88
2022-11-28T13:53:01.484Z,44.43
2022-11-28T13:55:41.389Z,44.99
2022-11-28T13:58:18.506Z,44.45
2022-11-28T14:01:02.482Z,44.38
2022-11-28T14:03:32.795Z,44.21
2022-11-28T14:06:02.931Z,44.09
2022-11-28T14:08:33.945Z,43.77
2022-11-28T14:11:49.154Z,43.66
2022-11-28T14:14:31.974Z,43.59
2022-11-28T14:17:16.620Z,43.49
2022-11-28T14:19:59.173Z,43.48
2022-11-28T14:22:38.200Z,43.53
2022-11-28T14:25:14.289Z,43.67
2022-11-28T14:27:51.613Z,43.82
2022-11-28T14:30:32.090Z,43.79
2022-11-28T14:33:03.648Z,43.70
2022-11-28T14:36:02.169Z,44.05
2022-11-28T14:38:44.354Z,44.03
2022-11-28T14:41:12.890Z,43.94
2022-11-28T14:43:42.976Z,43.82
2022-11-28T14:46:26.304Z,43.72
2022-11-28T14:49:21.858Z,43.69
2022-11-28T14:52:38.875Z,43.55
2022-11-28T14:55:17.865Z,43.86
2022-11-28T14:57:54.752Z,43.78
2022-11-28T15:00:26.173Z,43.86
2022-11-28T15:03:10.402Z,43.81
2022-11-28T15:05:43.846Z,43.71
2022-11-28T15:08:23.573Z,43.26
2022-11-28T15:10:59.962Z,43.50
2022-11-28T15:13:42.347Z,43.35
2022-11-28T15:16:13.623Z,43.44
2022-11-28T15:18:48.201Z,43.21
2022-11-28T15:21:17.127Z,43.25
2022-11-28T15:23:44.296Z,43.15
2022-11-28T15:26:18.974Z,43.41
2022-11-28T15:28:46.096Z,43.19
2022-11-28T15:31:22.135Z,43.17
2022-11-28T15:33:50.094Z,43.25
2022-11-28T15:36:26.475Z,43.26
2022-11-28T15:38:54.269Z,43.34
2022-11-28T15:41:23.170Z,43.34
2022-11-28T15:43:51.338Z,43.32
2022-11-28T15:46:25.889Z,43.20
2022-11-28T15:48:53.187Z,43.24
2022-11-28T15:51:27.920Z,43.34
2022-11-28T15:53:55.921Z,43.42
2022-11-28T15:56:23.476Z,43.51
2022-11-28T15:58:51.415Z,43.11
2022-11-28T16:01:22.176Z,43.47
2022-11-28T16:03:54.514Z,43.45
2022-11-28T16:06:24.222Z,44.29
2022-11-28T16:08:54.776Z,43.62
2022-11-28T16:11:24.708Z,44.14
2022-11-28T16:13:54.063Z,43.95
2022-11-28T16:16:25.747Z,44.16
2022-11-28T16:18:57.092Z,43.97
2022-11-28T16:21:28.442Z,43.95
2022-11-28T16:23:55.710Z,43.77
2022-11-28T16:26:30.576Z,55.66
2022-11-28T16:29:02.089Z,47.55
2022-11-28T16:31:30.643Z,45.55
2022-11-28T16:33:59.008Z,44.72
2022-11-28T16:36:32.482Z,44.96
2022-11-28T16:39:12.366Z,45.25
2022-11-28T16:41:41.059Z,45.33
2022-11-28T16:44:13.113Z,45.41
2022-11-28T16:46:50.416Z,45.07
2022-11-28T16:49:34.128Z,44.36
2022-11-28T16:52:43.183Z,44.52
2022-11-28T16:55:38.073Z,44.34
2022-11-28T16:58:11.931Z,44.10
2022-11-28T17:00:42.198Z,44.13
2022-11-28T17:03:39.710Z,43.92
2022-11-28T17:06:15.422Z,44.08
2022-11-28T17:08:42.594Z,44.00
2022-11-28T17:11:10.196Z,43.84
2022-11-28T17:13:37.311Z,44.06
2022-11-28T17:16:05.022Z,43.78
2022-11-28T17:18:33.533Z,44.07
2022-11-28T17:21:00.722Z,43.86
2022-11-28T17:23:27.875Z,43.84
2022-11-28T17:25:55.001Z,43.78
2022-11-28T17:28:26.434Z,43.92
2022-11-28T17:30:56.129Z,43.80
2022-11-28T17:33:23.244Z,43.85
2022-11-28T17:35:53.119Z,43.81
2022-11-28T17:38:20.295Z,43.83
2022-11-28T17:40:47.427Z,43.51
2022-11-28T17:43:16.030Z,43.46
2022-11-28T17:45:43.769Z,43.17
2022-11-28T17:48:11.482Z,43.59
2022-11-28T17:50:38.636Z,43.54
2022-11-28T17:53:07.325Z,43.44
2022-11-28T17:55:34.486Z,43.38
2022-11-28T17:58:01.589Z,43.55
2022-11-28T18:00:28.758Z,43.56
2022-11-28T18:02:55.874Z,43.60
2022-11-28T18:05:22.975Z,43.47
2022-11-28T18:07:50.152Z,43.62
2022-11-28T18:10:18.791Z,43.42
2022-11-28T18:12:45.907Z,43.64
2022-11-28T18:15:13.054Z,43.63
2022-11-28T18:17:40.310Z,43.70
2022-11-28T18:20:08.373Z,43.72
2022-11-28T18:22:35.518Z,43.66
2022-11-28T18:25:02.628Z,43.76
2022-11-28T18:27:31.109Z,43.47
2022-11-28T18:29:58.250Z,43.50
2022-11-28T18:32:25.365Z,43.06
2022-11-28T18:34:52.471Z,43.19
2022-11-28T18:37:19.631Z,43.27
2022-11-28T18:39:46.806Z,42.94
2022-11-28T18:42:14.121Z,42.97
2022-11-28T18:44:42.621Z,43.21
2022-11-28T18:47:09.748Z,43.15
2022-11-28T18:49:36.897Z,43.15
2022-11-28T18:52:04.180Z,43.03
2022-11-28T18:54:31.344Z,43.15
2022-11-28T18:56:58.557Z,42.99
2022-11-28T18:59:25.994Z,43.04
2022-11-28T19:01:54.465Z,43.08
2022-11-28T19:04:21.625Z,42.95
2022-11-28T19:06:48.900Z,43.10
2022-11-28T19:09:17.096Z,43.05
2022-11-28T19:11:44.731Z,43.02
2022-11-28T19:14:14.894Z,42.90
2022-11-28T19:16:42.321Z,43.59
2022-11-28T19:19:11.437Z,43.18
2022-11-28T19:21:38.610Z,43.23
2022-11-28T19:24:06.740Z,43.22
2022-11-28T19:26:34.746Z,43.14
2022-11-28T19:29:02.276Z,43.08
2022-11-28T19:31:31.228Z,43.08
2022-11-28T19:34:01.527Z,42.98
2022-11-28T19:36:32.366Z,42.97
2022-11-28T19:38:59.653Z,43.01
2022-11-28T19:41:28.511Z,42.84
2022-11-28T19:43:55.987Z,42.46
2022-11-28T19:46:23.551Z,42.63
2022-11-28T19:48:50.683Z,42.60
2022-11-28T19:51:18.967Z,42.62
2022-11-28T19:53:47.488Z,42.61
2022-11-28T19:56:17.162Z,42.67
2022-11-28T19:58:44.783Z,42.72
2022-11-28T20:01:13.824Z,42.95
2022-11-28T20:03:42.186Z,43.00
2022-11-28T20:06:10.536Z,42.99
2022-11-28T20:08:38.567Z,43.05
2022-11-28T20:11:12.809Z,42.78
2022-11-28T20:13:40.479Z,42.60
2022-11-28T20:16:09.822Z,42.34
2022-11-28T20:18:37.974Z,42.21
2022-11-28T20:21:06.901Z,42.52
2022-11-28T20:23:34.250Z,42.73
2022-11-28T20:26:03.021Z,42.72
2022-11-28T20:28:33.479Z,42.77
2022-11-28T20:31:00.941Z,42.94
2022-11-28T20:33:28.446Z,43.04
2022-11-28T20:36:04.993Z,43.06
2022-11-28T20:38:32.135Z,43.08
2022-11-28T20:41:00.295Z,42.97
2022-11-28T20:43:29.393Z,43.07
2022-11-28T20:46:02.613Z,43.22
2022-11-28T20:48:30.196Z,43.39
2022-11-28T20:50:57.790Z,43.27
2022-11-28T20:53:26.944Z,43.39
2022-11-28T20:56:00.776Z,43.20
2022-11-28T20:58:28.192Z,43.26
2022-11-28T21:00:55.623Z,43.18
2022-11-28T21:03:24.919Z,42.86
2022-11-28T21:05:56.438Z,42.89
2022-11-28T21:08:26.582Z,42.99
2022-11-28T21:10:53.715Z,43.17
2022-11-28T21:13:20.802Z,43.24
2022-11-28T21:15:48.086Z,43.35
2022-11-28T21:18:16.242Z,43.23
2022-11-28T21:20:45.801Z,43.09
2022-11-28T21:23:15.550Z,43.24
2022-11-28T21:25:43.894Z,43.20
2022-11-28T21:28:12.481Z,42.97
2022-11-28T21:30:41.576Z,43.15
2022-11-28T21:33:09.742Z,43.27
2022-11-28T21:35:37.062Z,43.33
2022-11-28T21:38:06.504Z,43.45
2022-11-28T21:40:33.823Z,43.33
2022-11-28T21:43:01.101Z,43.18
2022-11-28T21:45:28.403Z,43.10
2022-11-28T21:47:55.579Z,43.70
2022-11-28T21:50:22.892Z,43.55
2022-11-28T21:52:49.998Z,42.89
2022-11-28T21:55:18.672Z,42.81
2022-11-28T21:57:45.788Z,42.81
2022-11-28T22:00:38.330Z,42.74
2022-11-28T22:03:05.838Z,42.76
2022-11-28T22:05:35.289Z,42.90
2022-11-28T22:08:02.691Z,43.47
2022-11-28T22:10:31.334Z,42.89
2022-11-28T22:12:58.477Z,42.85
2022-11-28T22:15:25.637Z,43.03
2022-11-28T22:17:52.738Z,42.95
2022-11-28T22:20:19.977Z,42.91
2022-11-28T22:22:47.933Z,42.99
2022-11-28T22:25:15.468Z,42.94
2022-11-28T22:27:43.936Z,42.97
2022-11-28T22:30:11.660Z,43.08
2022-11-28T22:32:40.125Z,43.04
2022-11-28T22:35:07.950Z,43.00
2022-11-28T22:37:35.250Z,42.83
2022-11-28T22:40:04.201Z,42.85
2022-11-28T22:42:31.417Z,42.80
2022-11-28T22:44:59.906Z,42.77
2022-11-28T22:47:27.037Z,42.66
2022-11-28T22:49:54.143Z,42.68
2022-11-28T22:52:21.270Z,42.72
2022-11-28T22:54:49.332Z,42.72
2022-11-28T22:57:16.474Z,42.82
2022-11-28T22:59:43.726Z,42.79
2022-11-28T23:02:12.289Z,42.82
2022-11-28T23:04:39.563Z,42.93
2022-11-28T23:07:06.723Z,42.88
2022-11-28T23:09:34.704Z,43.14
2022-11-28T23:12:01.799Z,43.02
2022-11-28T23:14:29.173Z,42.95
2022-11-28T23:16:56.340Z,43.13
2022-11-28T23:19:24.826Z,43.10
2022-11-28T23:21:52.114Z,43.07
2022-11-28T23:24:21.249Z,42.93
2022-11-28T23:26:49.557Z,42.88
2022-11-28T23:29:17.390Z,42.88
2022-11-28T23:31:45.387Z,42.82
2022-11-28T23:34:13.053Z,42.92
2022-11-28T23:36:43.230Z,42.79
2022-11-28T23:39:12.305Z,42.79
2022-11-28T23:41:40.186Z,42.77
2022-11-28T23:44:07.348Z,42.86
2022-11-28T23:46:34.440Z,42.97
2022-11-28T23:49:01.572Z,43.14
2022-11-28T23:51:28.740Z,42.97
2022-11-28T23:53:57.399Z,43.05
2022-11-28T23:56:26.594Z,43.04
2022-11-28T23:58:54.962Z,43.08
